sensor_id;sensor_type;location;lat;lon;timestamp;temperature;humidity
8067;DHT22;4076;48.076;9.118;2024-03-29T00:00:34;0.60;99.90
8067;DHT22;4076;48.076;9.118;2024-03-29T00:03:00;0.50;99.90
8067;DHT22;4076;48.076;9.118;2024-03-29T00:05:25;0.50;99.90
8067;DHT22;4076;48.076;9.118;2024-03-29T00:07:51;0.40;99.90
8067;DHT22;4076;48.076;9.118;2024-03-29T00:10:16;0.40;99.90
8067;DHT22;4076;48.076;9.118;2024-03-29T00:12:42;0.40;99.90
8067;DHT22;4076;48.076;9.118;2024-03-29T00:15:07;0.30;99.90
8067;DHT22;4076;48.076;9.118;2024-03-29T00:17:33;0.30;99.90
8067;DHT22;4076;48.076;9.118;2024-03-29T00:19:58;0.30;99.90
8067;DHT22;4076;48.076;9.118;2024-03-29T00:22:24;0.30;99.90
8067;DHT22;4076;48.076;9.118;2024-03-29T00:24:49;0.40;99.90
8067;DHT22;4076;48.076;9.118;2024-03-29T00:27:15;0.50;99.90
8067;DHT22;4076;48.076;9.118;2024-03-29T00:29:40;0.50;99.90
8067;DHT22;4076;48.076;9.118;2024-03-29T00:32:08;0.50;99.90
8067;DHT22;4076;48.076;9.118;2024-03-29T00:34:33;0.50;99.90
8067;DHT22;4076;48.076;9.118;2024-03-29T00:36:59;0.40;99.90
8067;DHT22;4076;48.076;9.118;2024-03-29T00:39:24;0.30;99.90
8067;DHT22;4076;48.076;9.118;2024-03-29T00:41:50;0.30;99.90
8067;DHT22;4076;48.076;9.118;2024-03-29T00:44:15;0.30;99.90
8067;DHT22;4076;48.076;9.118;2024-03-29T00:46:41;0.30;99.90
8067;DHT22;4076;48.076;9.118;2024-03-29T00:49:06;0.20;99.90
8067;DHT22;4076;48.076;9.118;2024-03-29T00:51:33;0.00;99.90
8067;DHT22;4076;48.076;9.118;2024-03-29T00:53:58;0.00;99.90
8067;DHT22;4076;48.076;9.118;2024-03-29T00:56:24;-0.10;99.90
8067;DHT22;4076;48.076;9.118;2024-03-29T00:58:49;0.00;99.90
8067;DHT22;4076;48.076;9.118;2024-03-29T01:01:15;0.00;99.90
8067;DHT22;4076;48.076;9.118;2024-03-29T01:03:40;0.00;99.90
8067;DHT22;4076;48.076;9.118;2024-03-29T01:06:06;0.10;99.90
8067;DHT22;4076;48.076;9.118;2024-03-29T01:08:31;0.10;99.90
8067;DHT22;4076;48.076;9.118;2024-03-29T01:10:57;0.00;99.90
8067;DHT22;4076;48.076;9.118;2024-03-29T01:13:22;0.20;99.90
8067;DHT22;4076;48.076;9.118;2024-03-29T01:15:48;0.20;99.90
8067;DHT22;4076;48.076;9.118;2024-03-29T01:18:13;0.20;99.90
8067;DHT22;4076;48.076;9.118;2024-03-29T01:20:39;0.10;99.90
8067;DHT22;4076;48.076;9.118;2024-03-29T01:23:04;0.10;99.90
8067;DHT22;4076;48.076;9.118;2024-03-29T01:25:30;0.10;99.90
8067;DHT22;4076;48.076;9.118;2024-03-29T01:27:56;0.20;99.90
8067;DHT22;4076;48.076;9.118;2024-03-29T01:30:21;0.20;99.90
8067;DHT22;4076;48.076;9.118;2024-03-29T01:32:47;0.30;99.90
8067;DHT22;4076;48.076;9.118;2024-03-29T01:35:13;0.30;99.90
8067;DHT22;4076;48.076;9.118;2024-03-29T01:37:38;0.30;99.90
8067;DHT22;4076;48.076;9.118;2024-03-29T01:40:05;0.20;99.90
8067;DHT22;4076;48.076;9.118;2024-03-29T01:42:30;0.20;99.90
8067;DHT22;4076;48.076;9.118;2024-03-29T01:44:56;0.20;99.90
8067;DHT22;4076;48.076;9.118;2024-03-29T01:47:21;0.20;99.90
8067;DHT22;4076;48.076;9.118;2024-03-29T01:49:47;0.20;99.90
8067;DHT22;4076;48.076;9.118;2024-03-29T01:52:14;0.20;99.90
8067;DHT22;4076;48.076;9.118;2024-03-29T01:54:42;0.20;99.90
8067;DHT22;4076;48.076;9.118;2024-03-29T01:57:08;0.10;99.90
8067;DHT22;4076;48.076;9.118;2024-03-29T01:59:33;0.10;99.90
8067;DHT22;4076;48.076;9.118;2024-03-29T02:01:59;0.10;99.90
8067;DHT22;4076;48.076;9.118;2024-03-29T02:04:26;0.10;99.90
8067;DHT22;4076;48.076;9.118;2024-03-29T02:06:52;0.00;99.90
8067;DHT22;4076;48.076;9.118;2024-03-29T02:09:17;0.00;99.90
8067;DHT22;4076;48.076;9.118;2024-03-29T02:11:43;0.00;99.90
8067;DHT22;4076;48.076;9.118;2024-03-29T02:14:09;-0.10;99.90
8067;DHT22;4076;48.076;9.118;2024-03-29T02:16:34;-0.10;99.90
8067;DHT22;4076;48.076;9.118;2024-03-29T02:19:00;-0.10;99.90
8067;DHT22;4076;48.076;9.118;2024-03-29T02:21:25;-0.10;99.90
8067;DHT22;4076;48.076;9.118;2024-03-29T02:24:06;-0.10;99.90
8067;DHT22;4076;48.076;9.118;2024-03-29T02:26:32;-0.10;99.90
8067;DHT22;4076;48.076;9.118;2024-03-29T02:29:01;-0.10;99.90
8067;DHT22;4076;48.076;9.118;2024-03-29T02:31:27;-0.10;99.90
8067;DHT22;4076;48.076;9.118;2024-03-29T02:33:53;-0.10;99.90
8067;DHT22;4076;48.076;9.118;2024-03-29T02:36:18;-0.20;99.90
8067;DHT22;4076;48.076;9.118;2024-03-29T02:38:44;0.00;99.90
8067;DHT22;4076;48.076;9.118;2024-03-29T02:41:10;-0.20;99.90
8067;DHT22;4076;48.076;9.118;2024-03-29T02:43:35;-0.10;99.90
8067;DHT22;4076;48.076;9.118;2024-03-29T02:46:01;-0.20;99.90
8067;DHT22;4076;48.076;9.118;2024-03-29T02:48:26;-0.20;99.90
8067;DHT22;4076;48.076;9.118;2024-03-29T02:50:52;-0.20;99.90
8067;DHT22;4076;48.076;9.118;2024-03-29T02:53:17;-0.20;99.90
8067;DHT22;4076;48.076;9.118;2024-03-29T02:55:43;-0.20;99.90
8067;DHT22;4076;48.076;9.118;2024-03-29T02:58:08;-0.20;99.90
8067;DHT22;4076;48.076;9.118;2024-03-29T03:00:34;-0.10;99.90
8067;DHT22;4076;48.076;9.118;2024-03-29T03:02:59;-0.10;99.90
8067;DHT22;4076;48.076;9.118;2024-03-29T03:05:25;-0.10;99.90
8067;DHT22;4076;48.076;9.118;2024-03-29T03:07:50;-0.10;99.90
8067;DHT22;4076;48.076;9.118;2024-03-29T03:10:34;-0.20;99.90
8067;DHT22;4076;48.076;9.118;2024-03-29T03:13:18;-0.20;99.90
8067;DHT22;4076;48.076;9.118;2024-03-29T03:15:44;-0.20;99.90
8067;DHT22;4076;48.076;9.118;2024-03-29T03:18:09;-0.20;99.90
8067;DHT22;4076;48.076;9.118;2024-03-29T03:23:57;-0.20;99.90
8067;DHT22;4076;48.076;9.118;2024-03-29T03:26:23;-0.20;99.90
8067;DHT22;4076;48.076;9.118;2024-03-29T03:28:48;-0.10;99.90
8067;DHT22;4076;48.076;9.118;2024-03-29T03:31:14;0.00;99.90
8067;DHT22;4076;48.076;9.118;2024-03-29T03:33:39;0.00;99.90
8067;DHT22;4076;48.076;9.118;2024-03-29T03:36:05;0.00;99.90
8067;DHT22;4076;48.076;9.118;2024-03-29T03:38:31;0.00;99.90
8067;DHT22;4076;48.076;9.118;2024-03-29T03:40:58;0.10;99.90
8067;DHT22;4076;48.076;9.118;2024-03-29T03:43:23;0.20;99.90
8067;DHT22;4076;48.076;9.118;2024-03-29T03:45:49;0.20;99.90
8067;DHT22;4076;48.076;9.118;2024-03-29T03:48:14;0.30;99.90
8067;DHT22;4076;48.076;9.118;2024-03-29T03:50:40;0.40;99.90
8067;DHT22;4076;48.076;9.118;2024-03-29T03:53:07;0.60;99.90
8067;DHT22;4076;48.076;9.118;2024-03-29T03:55:36;0.70;99.90
8067;DHT22;4076;48.076;9.118;2024-03-29T03:58:02;0.70;99.90
8067;DHT22;4076;48.076;9.118;2024-03-29T04:00:28;0.80;99.90
8067;DHT22;4076;48.076;9.118;2024-03-29T04:02:53;0.90;99.90
8067;DHT22;4076;48.076;9.118;2024-03-29T04:05:20;0.90;99.90
8067;DHT22;4076;48.076;9.118;2024-03-29T04:07:46;0.90;99.90
8067;DHT22;4076;48.076;9.118;2024-03-29T04:10:12;0.90;99.90
8067;DHT22;4076;48.076;9.118;2024-03-29T04:12:38;0.90;99.90
8067;DHT22;4076;48.076;9.118;2024-03-29T04:15:04;1.00;99.90
8067;DHT22;4076;48.076;9.118;2024-03-29T04:17:30;1.00;99.90
8067;DHT22;4076;48.076;9.118;2024-03-29T04:19:56;1.00;99.90
8067;DHT22;4076;48.076;9.118;2024-03-29T04:22:22;1.00;99.90
8067;DHT22;4076;48.076;9.118;2024-03-29T04:24:48;1.00;99.90
8067;DHT22;4076;48.076;9.118;2024-03-29T04:27:14;1.00;99.90
8067;DHT22;4076;48.076;9.118;2024-03-29T04:29:39;1.00;99.90
8067;DHT22;4076;48.076;9.118;2024-03-29T04:32:05;1.10;99.90
8067;DHT22;4076;48.076;9.118;2024-03-29T04:34:30;1.10;99.90
8067;DHT22;4076;48.076;9.118;2024-03-29T04:36:56;1.00;99.90
8067;DHT22;4076;48.076;9.118;2024-03-29T04:39:22;1.00;99.90
8067;DHT22;4076;48.076;9.118;2024-03-29T04:41:48;1.00;99.90
8067;DHT22;4076;48.076;9.118;2024-03-29T04:44:22;1.00;99.90
8067;DHT22;4076;48.076;9.118;2024-03-29T04:46:49;1.00;99.90
8067;DHT22;4076;48.076;9.118;2024-03-29T04:49:15;1.00;99.90
8067;DHT22;4076;48.076;9.118;2024-03-29T04:51:43;1.00;99.90
8067;DHT22;4076;48.076;9.118;2024-03-29T04:54:08;1.00;99.90
8067;DHT22;4076;48.076;9.118;2024-03-29T04:56:34;1.00;99.90
8067;DHT22;4076;48.076;9.118;2024-03-29T04:59:01;1.10;99.90
8067;DHT22;4076;48.076;9.118;2024-03-29T05:01:28;1.10;99.90
8067;DHT22;4076;48.076;9.118;2024-03-29T05:03:53;1.10;99.90
8067;DHT22;4076;48.076;9.118;2024-03-29T05:06:19;1.20;99.90
8067;DHT22;4076;48.076;9.118;2024-03-29T05:08:44;1.60;99.90
8067;DHT22;4076;48.076;9.118;2024-03-29T05:11:10;2.20;99.90
8067;DHT22;4076;48.076;9.118;2024-03-29T05:13:39;2.40;99.90
8067;DHT22;4076;48.076;9.118;2024-03-29T05:16:05;2.50;99.90
8067;DHT22;4076;48.076;9.118;2024-03-29T05:18:31;2.70;99.90
8067;DHT22;4076;48.076;9.118;2024-03-29T05:20:56;2.70;99.90
8067;DHT22;4076;48.076;9.118;2024-03-29T05:23:22;2.50;99.90
8067;DHT22;4076;48.076;9.118;2024-03-29T05:25:48;2.30;99.90
8067;DHT22;4076;48.076;9.118;2024-03-29T05:28:14;2.30;99.90
8067;DHT22;4076;48.076;9.118;2024-03-29T05:30:40;2.50;99.90
8067;DHT22;4076;48.076;9.118;2024-03-29T05:33:06;2.70;99.90
8067;DHT22;4076;48.076;9.118;2024-03-29T05:35:33;2.80;99.90
8067;DHT22;4076;48.076;9.118;2024-03-29T05:37:58;3.00;99.90
8067;DHT22;4076;48.076;9.118;2024-03-29T05:40:24;3.40;99.90
8067;DHT22;4076;48.076;9.118;2024-03-29T05:42:53;3.40;99.90
8067;DHT22;4076;48.076;9.118;2024-03-29T05:47:56;3.20;99.90
8067;DHT22;4076;48.076;9.118;2024-03-29T05:50:23;3.10;99.90
8067;DHT22;4076;48.076;9.118;2024-03-29T05:52:48;3.10;99.90
8067;DHT22;4076;48.076;9.118;2024-03-29T05:55:14;3.20;99.90
8067;DHT22;4076;48.076;9.118;2024-03-29T05:57:40;3.50;99.90
8067;DHT22;4076;48.076;9.118;2024-03-29T06:00:12;3.80;99.90
8067;DHT22;4076;48.076;9.118;2024-03-29T06:02:39;4.00;99.90
8067;DHT22;4076;48.076;9.118;2024-03-29T06:05:05;4.20;99.90
8067;DHT22;4076;48.076;9.118;2024-03-29T06:07:31;4.30;99.90
8067;DHT22;4076;48.076;9.118;2024-03-29T06:09:59;4.40;99.90
8067;DHT22;4076;48.076;9.118;2024-03-29T06:12:25;4.60;99.90
8067;DHT22;4076;48.076;9.118;2024-03-29T06:14:51;4.70;99.90
8067;DHT22;4076;48.076;9.118;2024-03-29T06:17:35;5.00;99.90
8067;DHT22;4076;48.076;9.118;2024-03-29T06:20:02;5.60;99.90
8067;DHT22;4076;48.076;9.118;2024-03-29T06:22:29;5.90;99.90
8067;DHT22;4076;48.076;9.118;2024-03-29T06:24:56;6.20;99.90
8067;DHT22;4076;48.076;9.118;2024-03-29T06:27:36;6.40;99.90
8067;DHT22;4076;48.076;9.118;2024-03-29T06:30:04;6.40;99.90
8067;DHT22;4076;48.076;9.118;2024-03-29T06:32:33;6.60;99.90
8067;DHT22;4076;48.076;9.118;2024-03-29T06:34:59;7.00;99.90
8067;DHT22;4076;48.076;9.118;2024-03-29T06:37:25;7.30;99.90
8067;DHT22;4076;48.076;9.118;2024-03-29T06:39:52;7.20;99.90
8067;DHT22;4076;48.076;9.118;2024-03-29T06:42:17;7.10;99.90
8067;DHT22;4076;48.076;9.118;2024-03-29T06:44:43;7.30;99.90
8067;DHT22;4076;48.076;9.118;2024-03-29T06:47:09;8.10;99.90
8067;DHT22;4076;48.076;9.118;2024-03-29T06:49:35;9.20;99.90
8067;DHT22;4076;48.076;9.118;2024-03-29T06:52:01;10.40;99.90
8067;DHT22;4076;48.076;9.118;2024-03-29T06:54:30;11.30;93.10
8067;DHT22;4076;48.076;9.118;2024-03-29T06:56:57;11.60;91.20
8067;DHT22;4076;48.076;9.118;2024-03-29T06:59:23;11.60;86.80
8067;DHT22;4076;48.076;9.118;2024-03-29T07:01:49;11.40;87.60
8067;DHT22;4076;48.076;9.118;2024-03-29T07:04:21;11.30;88.20
8067;DHT22;4076;48.076;9.118;2024-03-29T07:06:47;11.00;89.20
8067;DHT22;4076;48.076;9.118;2024-03-29T07:09:13;10.50;85.00
8067;DHT22;4076;48.076;9.118;2024-03-29T07:11:40;10.10;85.60
8067;DHT22;4076;48.076;9.118;2024-03-29T07:14:05;9.80;88.80
8067;DHT22;4076;48.076;9.118;2024-03-29T07:16:31;9.60;88.80
8067;DHT22;4076;48.076;9.118;2024-03-29T07:18:57;10.10;88.80
8067;DHT22;4076;48.076;9.118;2024-03-29T07:21:23;11.80;88.00
8067;DHT22;4076;48.076;9.118;2024-03-29T07:23:49;14.20;77.50
8067;DHT22;4076;48.076;9.118;2024-03-29T07:26:14;16.10;58.30
8067;DHT22;4076;48.076;9.118;2024-03-29T07:28:40;18.00;51.50
8067;DHT22;4076;48.076;9.118;2024-03-29T07:31:06;19.50;46.60
8067;DHT22;4076;48.076;9.118;2024-03-29T07:33:36;21.10;59.40
8067;DHT22;4076;48.076;9.118;2024-03-29T07:36:02;22.50;58.50
8067;DHT22;4076;48.076;9.118;2024-03-29T07:38:29;22.60;42.80
8067;DHT22;4076;48.076;9.118;2024-03-29T07:40:55;21.60;42.30
8067;DHT22;4076;48.076;9.118;2024-03-29T07:43:22;22.00;44.10
8067;DHT22;4076;48.076;9.118;2024-03-29T07:45:48;23.90;37.80
8067;DHT22;4076;48.076;9.118;2024-03-29T07:48:15;25.00;34.80
8067;DHT22;4076;48.076;9.118;2024-03-29T07:50:42;26.60;36.10
8067;DHT22;4076;48.076;9.118;2024-03-29T07:53:09;28.00;31.20
8067;DHT22;4076;48.076;9.118;2024-03-29T07:55:36;29.60;28.70
8067;DHT22;4076;48.076;9.118;2024-03-29T07:58:02;30.10;29.70
8067;DHT22;4076;48.076;9.118;2024-03-29T08:00:31;31.40;31.10
8067;DHT22;4076;48.076;9.118;2024-03-29T08:02:57;32.50;29.10
8067;DHT22;4076;48.076;9.118;2024-03-29T08:05:23;33.00;27.30
8067;DHT22;4076;48.076;9.118;2024-03-29T08:07:49;33.60;26.40
8067;DHT22;4076;48.076;9.118;2024-03-29T08:10:14;34.10;26.30
8067;DHT22;4076;48.076;9.118;2024-03-29T08:12:40;34.00;27.10
8067;DHT22;4076;48.076;9.118;2024-03-29T08:15:06;33.90;26.80
8067;DHT22;4076;48.076;9.118;2024-03-29T08:17:32;33.80;25.70
8067;DHT22;4076;48.076;9.118;2024-03-29T08:19:58;32.50;25.70
8067;DHT22;4076;48.076;9.118;2024-03-29T08:22:23;30.90;25.80
8067;DHT22;4076;48.076;9.118;2024-03-29T08:24:49;29.90;29.70
8067;DHT22;4076;48.076;9.118;2024-03-29T08:27:14;29.40;34.40
8067;DHT22;4076;48.076;9.118;2024-03-29T08:29:43;28.90;31.70
8067;DHT22;4076;48.076;9.118;2024-03-29T08:32:09;27.70;27.30
8067;DHT22;4076;48.076;9.118;2024-03-29T08:34:36;26.90;27.40
8067;DHT22;4076;48.076;9.118;2024-03-29T08:37:02;25.90;29.40
8067;DHT22;4076;48.076;9.118;2024-03-29T08:39:31;25.20;28.50
8067;DHT22;4076;48.076;9.118;2024-03-29T08:42:00;24.80;28.70
8067;DHT22;4076;48.076;9.118;2024-03-29T08:44:30;24.10;28.90
8067;DHT22;4076;48.076;9.118;2024-03-29T08:46:56;23.40;29.70
8067;DHT22;4076;48.076;9.118;2024-03-29T08:49:24;23.40;30.00
8067;DHT22;4076;48.076;9.118;2024-03-29T08:51:50;23.20;30.00
8067;DHT22;4076;48.076;9.118;2024-03-29T08:54:15;22.50;30.10
8067;DHT22;4076;48.076;9.118;2024-03-29T08:56:41;21.50;30.10
8067;DHT22;4076;48.076;9.118;2024-03-29T08:59:06;20.50;31.10
8067;DHT22;4076;48.076;9.118;2024-03-29T09:01:53;19.70;32.90
8067;DHT22;4076;48.076;9.118;2024-03-29T09:04:18;18.90;32.60
8067;DHT22;4076;48.076;9.118;2024-03-29T09:06:45;18.60;34.10
8067;DHT22;4076;48.076;9.118;2024-03-29T09:09:10;18.40;35.10
8067;DHT22;4076;48.076;9.118;2024-03-29T09:11:36;18.40;36.00
8067;DHT22;4076;48.076;9.118;2024-03-29T09:14:01;18.10;36.10
8067;DHT22;4076;48.076;9.118;2024-03-29T09:16:27;18.00;36.60
8067;DHT22;4076;48.076;9.118;2024-03-29T09:18:56;17.60;37.60
8067;DHT22;4076;48.076;9.118;2024-03-29T09:21:22;17.30;38.40
8067;DHT22;4076;48.076;9.118;2024-03-29T09:23:47;17.00;38.60
8067;DHT22;4076;48.076;9.118;2024-03-29T09:26:15;16.90;38.00
8067;DHT22;4076;48.076;9.118;2024-03-29T09:28:41;16.60;38.70
8067;DHT22;4076;48.076;9.118;2024-03-29T09:31:06;16.50;39.00
8067;DHT22;4076;48.076;9.118;2024-03-29T09:33:32;16.50;39.60
8067;DHT22;4076;48.076;9.118;2024-03-29T09:35:58;16.70;39.90
8067;DHT22;4076;48.076;9.118;2024-03-29T09:38:25;17.10;40.20
8067;DHT22;4076;48.076;9.118;2024-03-29T09:41:06;17.40;40.00
8067;DHT22;4076;48.076;9.118;2024-03-29T09:43:33;18.50;39.50
8067;DHT22;4076;48.076;9.118;2024-03-29T09:45:59;20.30;38.00
8067;DHT22;4076;48.076;9.118;2024-03-29T09:48:25;21.70;36.40
8067;DHT22;4076;48.076;9.118;2024-03-29T09:50:54;22.20;35.40
8067;DHT22;4076;48.076;9.118;2024-03-29T09:53:21;22.10;34.60
8067;DHT22;4076;48.076;9.118;2024-03-29T09:55:48;21.90;35.50
8067;DHT22;4076;48.076;9.118;2024-03-29T09:58:14;21.60;35.50
8067;DHT22;4076;48.076;9.118;2024-03-29T10:00:40;21.00;35.00
8067;DHT22;4076;48.076;9.118;2024-03-29T10:03:05;20.20;35.40
8067;DHT22;4076;48.076;9.118;2024-03-29T10:05:33;19.50;36.10
8067;DHT22;4076;48.076;9.118;2024-03-29T10:07:59;18.90;36.80
8067;DHT22;4076;48.076;9.118;2024-03-29T10:10:31;18.50;37.90
8067;DHT22;4076;48.076;9.118;2024-03-29T10:12:57;18.40;38.70
8067;DHT22;4076;48.076;9.118;2024-03-29T10:15:23;18.60;38.30
8067;DHT22;4076;48.076;9.118;2024-03-29T10:17:51;18.90;37.70
8067;DHT22;4076;48.076;9.118;2024-03-29T10:20:18;18.90;37.60
8067;DHT22;4076;48.076;9.118;2024-03-29T10:22:45;19.00;38.40
8067;DHT22;4076;48.076;9.118;2024-03-29T10:25:14;19.40;38.40
8067;DHT22;4076;48.076;9.118;2024-03-29T10:27:40;19.80;36.90
8067;DHT22;4076;48.076;9.118;2024-03-29T10:30:10;20.00;35.80
8067;DHT22;4076;48.076;9.118;2024-03-29T10:32:39;20.20;35.00
8067;DHT22;4076;48.076;9.118;2024-03-29T10:35:08;20.60;34.50
8067;DHT22;4076;48.076;9.118;2024-03-29T10:37:35;20.90;34.80
8067;DHT22;4076;48.076;9.118;2024-03-29T10:40:13;21.20;33.60
8067;DHT22;4076;48.076;9.118;2024-03-29T10:42:43;21.50;32.60
8067;DHT22;4076;48.076;9.118;2024-03-29T10:45:10;21.40;32.60
8067;DHT22;4076;48.076;9.118;2024-03-29T10:47:36;21.30;32.10
8067;DHT22;4076;48.076;9.118;2024-03-29T10:50:02;21.30;32.70
8067;DHT22;4076;48.076;9.118;2024-03-29T10:52:30;21.30;32.70
8067;DHT22;4076;48.076;9.118;2024-03-29T10:54:56;21.10;33.20
8067;DHT22;4076;48.076;9.118;2024-03-29T10:57:26;20.90;33.40
8067;DHT22;4076;48.076;9.118;2024-03-29T11:00:07;20.70;33.60
8067;DHT22;4076;48.076;9.118;2024-03-29T11:05:12;20.40;35.00
8067;DHT22;4076;48.076;9.118;2024-03-29T11:07:39;20.30;35.30
8067;DHT22;4076;48.076;9.118;2024-03-29T11:10:07;20.10;35.40
8067;DHT22;4076;48.076;9.118;2024-03-29T11:12:45;20.10;35.60
8067;DHT22;4076;48.076;9.118;2024-03-29T11:15:19;20.10;35.40
8067;DHT22;4076;48.076;9.118;2024-03-29T11:17:45;20.10;35.50
8067;DHT22;4076;48.076;9.118;2024-03-29T11:20:12;20.20;35.90
8067;DHT22;4076;48.076;9.118;2024-03-29T11:22:40;20.30;35.90
8067;DHT22;4076;48.076;9.118;2024-03-29T11:25:06;20.50;36.00
8067;DHT22;4076;48.076;9.118;2024-03-29T11:27:33;20.60;35.80
8067;DHT22;4076;48.076;9.118;2024-03-29T11:30:01;20.80;35.70
8067;DHT22;4076;48.076;9.118;2024-03-29T11:32:37;20.70;35.70
8067;DHT22;4076;48.076;9.118;2024-03-29T11:35:04;20.50;35.70
8067;DHT22;4076;48.076;9.118;2024-03-29T11:37:31;20.40;36.00
8067;DHT22;4076;48.076;9.118;2024-03-29T11:39:59;20.40;36.30
8067;DHT22;4076;48.076;9.118;2024-03-29T11:42:46;20.40;37.00
8067;DHT22;4076;48.076;9.118;2024-03-29T11:45:12;20.60;37.00
8067;DHT22;4076;48.076;9.118;2024-03-29T11:47:39;20.80;36.40
8067;DHT22;4076;48.076;9.118;2024-03-29T11:50:07;20.90;36.50
8067;DHT22;4076;48.076;9.118;2024-03-29T11:52:34;21.00;36.20
8067;DHT22;4076;48.076;9.118;2024-03-29T11:54:59;21.00;37.20
8067;DHT22;4076;48.076;9.118;2024-03-29T11:57:25;20.90;36.50
8067;DHT22;4076;48.076;9.118;2024-03-29T11:59:50;20.80;36.60
8067;DHT22;4076;48.076;9.118;2024-03-29T12:02:17;20.60;36.80
8067;DHT22;4076;48.076;9.118;2024-03-29T12:04:43;20.60;37.50
8067;DHT22;4076;48.076;9.118;2024-03-29T12:07:09;20.60;37.30
8067;DHT22;4076;48.076;9.118;2024-03-29T12:09:35;20.60;37.20
8067;DHT22;4076;48.076;9.118;2024-03-29T12:12:05;20.50;37.40
8067;DHT22;4076;48.076;9.118;2024-03-29T12:14:32;20.30;37.40
8067;DHT22;4076;48.076;9.118;2024-03-29T12:17:09;20.20;38.00
8067;DHT22;4076;48.076;9.118;2024-03-29T12:19:35;20.20;38.20
8067;DHT22;4076;48.076;9.118;2024-03-29T12:22:03;20.40;38.20
8067;DHT22;4076;48.076;9.118;2024-03-29T12:24:29;20.50;38.60
8067;DHT22;4076;48.076;9.118;2024-03-29T12:26:55;20.60;38.80
8067;DHT22;4076;48.076;9.118;2024-03-29T12:29:20;20.50;38.90
8067;DHT22;4076;48.076;9.118;2024-03-29T12:31:56;20.40;38.70
8067;DHT22;4076;48.076;9.118;2024-03-29T12:34:22;20.20;38.40
8067;DHT22;4076;48.076;9.118;2024-03-29T12:36:48;20.00;38.60
8067;DHT22;4076;48.076;9.118;2024-03-29T12:39:13;19.90;39.50
8067;DHT22;4076;48.076;9.118;2024-03-29T12:41:39;19.70;39.20
8067;DHT22;4076;48.076;9.118;2024-03-29T12:44:05;19.60;39.30
8067;DHT22;4076;48.076;9.118;2024-03-29T12:46:31;19.50;39.70
8067;DHT22;4076;48.076;9.118;2024-03-29T12:49:00;19.50;40.10
8067;DHT22;4076;48.076;9.118;2024-03-29T12:51:29;19.60;40.40
8067;DHT22;4076;48.076;9.118;2024-03-29T12:53:55;19.70;40.60
8067;DHT22;4076;48.076;9.118;2024-03-29T12:56:26;19.80;39.70
8067;DHT22;4076;48.076;9.118;2024-03-29T12:58:51;19.90;39.80
8067;DHT22;4076;48.076;9.118;2024-03-29T13:01:17;19.90;39.90
8067;DHT22;4076;48.076;9.118;2024-03-29T13:03:42;20.00;39.80
8067;DHT22;4076;48.076;9.118;2024-03-29T13:06:09;20.00;40.10
8067;DHT22;4076;48.076;9.118;2024-03-29T13:08:35;20.10;39.60
8067;DHT22;4076;48.076;9.118;2024-03-29T13:11:01;20.10;39.30
8067;DHT22;4076;48.076;9.118;2024-03-29T13:13:27;20.20;38.50
8067;DHT22;4076;48.076;9.118;2024-03-29T13:15:53;20.10;38.00
8067;DHT22;4076;48.076;9.118;2024-03-29T13:18:19;20.10;38.40
8067;DHT22;4076;48.076;9.118;2024-03-29T13:20:44;20.10;38.60
8067;DHT22;4076;48.076;9.118;2024-03-29T13:23:10;20.00;38.40
8067;DHT22;4076;48.076;9.118;2024-03-29T13:25:36;20.10;38.40
8067;DHT22;4076;48.076;9.118;2024-03-29T13:28:02;20.10;37.90
8067;DHT22;4076;48.076;9.118;2024-03-29T13:30:28;20.10;38.10
8067;DHT22;4076;48.076;9.118;2024-03-29T13:32:55;20.10;38.20
8067;DHT22;4076;48.076;9.118;2024-03-29T13:35:21;20.20;38.10
8067;DHT22;4076;48.076;9.118;2024-03-29T13:37:51;20.30;38.10
8067;DHT22;4076;48.076;9.118;2024-03-29T13:40:21;20.20;38.40
8067;DHT22;4076;48.076;9.118;2024-03-29T13:42:47;20.30;38.10
8067;DHT22;4076;48.076;9.118;2024-03-29T13:45:14;20.30;38.00
8067;DHT22;4076;48.076;9.118;2024-03-29T13:47:41;20.40;38.30
8067;DHT22;4076;48.076;9.118;2024-03-29T13:50:08;20.60;37.60
8067;DHT22;4076;48.076;9.118;2024-03-29T13:52:34;20.70;36.80
8067;DHT22;4076;48.076;9.118;2024-03-29T13:55:01;20.70;36.90
8067;DHT22;4076;48.076;9.118;2024-03-29T13:57:28;20.60;37.00
8067;DHT22;4076;48.076;9.118;2024-03-29T13:59:53;20.60;37.40
8067;DHT22;4076;48.076;9.118;2024-03-29T14:02:19;20.70;37.40
8067;DHT22;4076;48.076;9.118;2024-03-29T14:04:46;20.80;37.00
8067;DHT22;4076;48.076;9.118;2024-03-29T14:07:14;21.00;36.50
8067;DHT22;4076;48.076;9.118;2024-03-29T14:09:40;21.10;36.40
8067;DHT22;4076;48.076;9.118;2024-03-29T14:12:07;21.00;36.70
8067;DHT22;4076;48.076;9.118;2024-03-29T14:14:33;21.10;37.00
8067;DHT22;4076;48.076;9.118;2024-03-29T14:16:59;21.20;37.00
8067;DHT22;4076;48.076;9.118;2024-03-29T14:19:32;21.10;37.30
8067;DHT22;4076;48.076;9.118;2024-03-29T14:21:59;21.00;37.00
8067;DHT22;4076;48.076;9.118;2024-03-29T14:24:25;21.00;37.40
8067;DHT22;4076;48.076;9.118;2024-03-29T14:26:51;21.00;37.90
8067;DHT22;4076;48.076;9.118;2024-03-29T14:29:17;20.90;37.80
8067;DHT22;4076;48.076;9.118;2024-03-29T14:31:47;20.80;37.30
8067;DHT22;4076;48.076;9.118;2024-03-29T14:34:12;20.70;36.90
8067;DHT22;4076;48.076;9.118;2024-03-29T14:36:37;20.70;37.70
8067;DHT22;4076;48.076;9.118;2024-03-29T14:39:03;20.60;37.00
8067;DHT22;4076;48.076;9.118;2024-03-29T14:41:29;20.80;37.60
8067;DHT22;4076;48.076;9.118;2024-03-29T14:43:55;20.70;37.80
8067;DHT22;4076;48.076;9.118;2024-03-29T14:46:22;20.70;37.60
8067;DHT22;4076;48.076;9.118;2024-03-29T14:48:48;20.70;37.20
8067;DHT22;4076;48.076;9.118;2024-03-29T14:51:13;20.60;37.10
8067;DHT22;4076;48.076;9.118;2024-03-29T14:53:39;20.60;37.40
8067;DHT22;4076;48.076;9.118;2024-03-29T14:56:06;20.50;39.20
8067;DHT22;4076;48.076;9.118;2024-03-29T14:58:32;20.50;39.50
8067;DHT22;4076;48.076;9.118;2024-03-29T15:00:58;20.40;38.50
8067;DHT22;4076;48.076;9.118;2024-03-29T15:03:23;20.40;39.00
8067;DHT22;4076;48.076;9.118;2024-03-29T15:05:49;20.30;39.30
8067;DHT22;4076;48.076;9.118;2024-03-29T15:08:15;20.30;39.60
8067;DHT22;4076;48.076;9.118;2024-03-29T15:10:45;20.30;39.60
8067;DHT22;4076;48.076;9.118;2024-03-29T15:13:11;20.10;40.00
8067;DHT22;4076;48.076;9.118;2024-03-29T15:15:36;20.00;39.90
8067;DHT22;4076;48.076;9.118;2024-03-29T15:18:04;20.00;40.10
8067;DHT22;4076;48.076;9.118;2024-03-29T15:20:31;19.90;40.30
8067;DHT22;4076;48.076;9.118;2024-03-29T15:22:56;19.90;40.60
8067;DHT22;4076;48.076;9.118;2024-03-29T15:25:23;20.00;41.00
8067;DHT22;4076;48.076;9.118;2024-03-29T15:27:48;19.90;41.20
8067;DHT22;4076;48.076;9.118;2024-03-29T15:30:32;19.80;41.30
8067;DHT22;4076;48.076;9.118;2024-03-29T15:33:00;19.80;41.90
8067;DHT22;4076;48.076;9.118;2024-03-29T15:35:25;19.70;42.70
8067;DHT22;4076;48.076;9.118;2024-03-29T15:37:51;19.60;44.00
8067;DHT22;4076;48.076;9.118;2024-03-29T15:40:16;19.40;45.40
8067;DHT22;4076;48.076;9.118;2024-03-29T15:42:42;19.10;45.40
8067;DHT22;4076;48.076;9.118;2024-03-29T15:45:08;19.00;47.00
8067;DHT22;4076;48.076;9.118;2024-03-29T15:47:34;18.90;47.30
8067;DHT22;4076;48.076;9.118;2024-03-29T15:50:00;18.70;47.70
8067;DHT22;4076;48.076;9.118;2024-03-29T15:52:25;18.60;47.80
8067;DHT22;4076;48.076;9.118;2024-03-29T15:54:51;18.50;48.70
8067;DHT22;4076;48.076;9.118;2024-03-29T15:57:19;18.40;48.50
8067;DHT22;4076;48.076;9.118;2024-03-29T15:59:45;18.30;49.80
8067;DHT22;4076;48.076;9.118;2024-03-29T16:02:13;18.20;50.20
8067;DHT22;4076;48.076;9.118;2024-03-29T16:04:39;18.10;49.80
8067;DHT22;4076;48.076;9.118;2024-03-29T16:07:04;18.00;50.60
8067;DHT22;4076;48.076;9.118;2024-03-29T16:09:30;17.90;51.10
8067;DHT22;4076;48.076;9.118;2024-03-29T16:11:55;17.80;50.90